world map with INZ marked

INZ - Airport

This information may not be accurate or current and is not valid for navigation or flight planning. No warranty of fitness for any purpose is made or implied.

flag of Algeria

Donate via PayPal

Additional information is available on the NEW Great Circle Mapper

Location
City:  In Salah, Tamanrasset, Algeria
Name:In Salah Airport
ICAO / IATA:DAUI / INZ

Details
Type:Airport (Aerodrome, Airfield)
Use:Public/Civil
Latitude:27°15'13"N (27.253611)
Longitude:2°30'39"E (2.510833)
Elevation:896 ft (273 m)
Runways:1
Longest:9843 × 148 ft (3000 × 45 m)

Time
Timezone:UTC+1 (DST+3)
Local Time:

Weather
METAR:DAUI  041400Z 02016KT CAVOK 15/M10 Q1023
TAF:DAUI  041100Z 0412/0512 04024KT 6000 NSC TEMPO 0412/0418 5000 DRSA PROB30 TEMPO 0412/0416 04025G35KT 2000 BLSA

Related Locations
Nearby:
Farthest:EUA: 11997 mi / 19308 km
Eua [Kaufana], TO

Find:

   beyond  
but within

Other Information
Maps:
Sources:

  


 


Great Circle Mapper   Great Circle Mapper
Great Circle Mapper FAQ   Great Circle Mapper FAQ
  Karl's Home Page
KLSē   KLSē Home
   GC on Facebook
Airlines of the World   Airlines of the World
Donate via PayPal


Copyright © 2004-2020, Karl L. Swartz. All rights reserved.
All trademarks mentioned herein belong to their respective owners.

Please see credits for attribution and copyright information.

Karl Swartz <karl@kls2.com>
  Powered by FreeBSD
Valid HTML 4.01!
Labeled with ICRA
hCard Microformat
Geo Microformat